createdAt,value
2019-01-10T00:00:22.614Z,1.97
2019-01-10T00:02:52.015Z,1.80
2019-01-10T00:05:21.086Z,1.90
2019-01-10T00:07:50.318Z,1.33
2019-01-10T00:10:19.480Z,1.80
2019-01-10T00:12:48.400Z,1.53
2019-01-10T00:15:19.172Z,1.97
2019-01-10T00:17:50.064Z,1.50
2019-01-10T00:20:19.251Z,1.30
2019-01-10T00:22:48.302Z,1.40
2019-01-10T00:25:17.541Z,1.40
2019-01-10T00:27:46.550Z,1.30
2019-01-10T00:30:19.812Z,1.70
2019-01-10T00:32:49.162Z,1.20
2019-01-10T00:35:18.208Z,1.70
2019-01-10T00:37:47.120Z,1.30
2019-01-10T00:40:16.501Z,1.50
2019-01-10T00:42:49.617Z,1.70
2019-01-10T00:45:16.557Z,1.33
2019-01-10T00:47:45.634Z,1.60
2019-01-10T00:50:21.354Z,1.40
2019-01-10T00:52:50.274Z,1.70
2019-01-10T00:55:19.183Z,1.53
2019-01-10T00:57:48.415Z,1.73
2019-01-10T01:00:23.682Z,1.73
2019-01-10T01:02:53.081Z,1.87
2019-01-10T01:05:22.894Z,2.03
2019-01-10T01:07:52.331Z,1.80
2019-01-10T01:10:26.818Z,1.73
2019-01-10T01:12:58.799Z,1.90
2019-01-10T01:15:27.435Z,1.63
2019-01-10T01:17:56.766Z,1.97
2019-01-10T01:20:25.840Z,1.60
2019-01-10T01:22:54.742Z,2.07
2019-01-10T01:25:23.992Z,2.30
2019-01-10T01:27:53.314Z,2.10
2019-01-10T01:30:24.390Z,1.83
2019-01-10T01:32:53.729Z,2.17
2019-01-10T01:35:23.050Z,2.00
2019-01-10T01:37:52.381Z,1.73
2019-01-10T01:40:21.863Z,1.80
2019-01-10T01:42:51.326Z,1.97
2019-01-10T01:45:20.896Z,1.97
2019-01-10T01:47:50.266Z,1.77
2019-01-10T01:50:21.552Z,2.10
2019-01-10T01:52:53.411Z,2.50
2019-01-10T01:55:22.305Z,1.60
2019-01-10T01:57:51.779Z,1.93
2019-01-10T02:00:22.952Z,2.00
2019-01-10T02:02:52.277Z,1.87
2019-01-10T02:05:21.617Z,1.90
2019-01-10T02:07:51.471Z,2.20
2019-01-10T02:10:23.079Z,1.93
2019-01-10T02:12:52.493Z,1.90
2019-01-10T02:15:21.818Z,1.67
2019-01-10T02:17:51.155Z,2.23
2019-01-10T02:20:20.500Z,1.87
2019-01-10T02:22:49.832Z,2.10
2019-01-10T02:25:19.231Z,1.87
2019-01-10T02:27:48.570Z,1.90
2019-01-10T02:30:22.592Z,2.10
2019-01-10T02:32:52.003Z,1.50
2019-01-10T02:35:21.406Z,2.60
2019-01-10T02:37:50.751Z,1.80
2019-01-10T02:40:20.238Z,2.03
2019-01-10T02:42:49.601Z,1.90
2019-01-10T02:45:19.139Z,1.97
2019-01-10T02:47:48.467Z,1.90
2019-01-10T02:50:19.750Z,1.80
2019-01-10T02:52:49.317Z,1.97
2019-01-10T02:55:18.682Z,2.00
2019-01-10T02:57:48.099Z,1.80
2019-01-10T03:00:20.166Z,2.20
2019-01-10T03:02:49.744Z,1.80
2019-01-10T03:05:19.264Z,2.13
2019-01-10T03:07:48.619Z,2.30
2019-01-10T03:10:21.059Z,1.93
2019-01-10T03:12:50.481Z,2.13
2019-01-10T03:15:19.751Z,2.13
2019-01-10T03:17:49.092Z,2.20
2019-01-10T03:20:20.766Z,2.07
2019-01-10T03:22:50.251Z,1.70
2019-01-10T03:25:19.649Z,2.50
2019-01-10T03:27:48.971Z,1.83
2019-01-10T03:30:19.761Z,1.83
2019-01-10T03:32:49.152Z,2.10
2019-01-10T03:35:18.569Z,2.00
2019-01-10T03:37:47.911Z,2.10
2019-01-10T03:40:18.983Z,2.67
2019-01-10T03:42:48.391Z,2.10
2019-01-10T03:45:19.355Z,2.20
2019-01-10T03:47:48.695Z,2.30
2019-01-10T03:50:19.396Z,2.27
2019-01-10T03:52:48.735Z,2.30
2019-01-10T03:55:18.091Z,2.20
2019-01-10T03:57:47.419Z,1.90
2019-01-10T04:00:21.734Z,2.27
2019-01-10T04:02:51.087Z,2.43
2019-01-10T04:05:20.482Z,2.30
2019-01-10T04:07:49.870Z,2.20
2019-01-10T04:10:19.282Z,2.00
2019-01-10T04:12:48.763Z,2.20
2019-01-10T04:15:18.268Z,2.17
2019-01-10T04:17:47.664Z,2.43
2019-01-10T04:20:17.695Z,2.10
2019-01-10T04:22:47.294Z,2.00
2019-01-10T04:25:16.736Z,3.57
2019-01-10T04:27:46.137Z,2.00
2019-01-10T04:30:19.220Z,2.00
2019-01-10T04:32:48.539Z,2.13
2019-01-10T04:35:17.946Z,2.10
2019-01-10T04:37:47.276Z,2.30
2019-01-10T04:40:18.446Z,2.03
2019-01-10T04:42:47.847Z,2.07
2019-01-10T04:45:17.248Z,2.30
2019-01-10T04:47:46.646Z,2.17
2019-01-10T04:50:16.047Z,1.93
2019-01-10T04:52:45.417Z,2.27
2019-01-10T04:55:14.822Z,2.57
2019-01-10T04:57:44.201Z,2.40
2019-01-10T05:00:17.075Z,1.83
2019-01-10T05:02:46.401Z,2.27
2019-01-10T05:05:15.746Z,1.90
2019-01-10T05:07:45.077Z,2.30
2019-01-10T05:10:14.569Z,2.20
2019-01-10T05:12:43.889Z,2.00
2019-01-10T05:15:15.174Z,2.23
2019-01-10T05:17:44.571Z,1.93
2019-01-10T05:20:16.243Z,2.43
2019-01-10T05:22:46.078Z,1.97
2019-01-10T05:25:15.528Z,1.80
2019-01-10T05:27:44.885Z,2.00
2019-01-10T05:30:17.542Z,1.70
2019-01-10T05:32:46.938Z,2.17
2019-01-10T05:35:16.277Z,2.00
2019-01-10T05:37:45.602Z,2.10
2019-01-10T05:40:15.027Z,2.00
2019-01-10T05:42:44.371Z,2.00
2019-01-10T05:45:17.694Z,2.20
2019-01-10T05:47:47.044Z,2.17
2019-01-10T05:50:17.899Z,2.17
2019-01-10T05:52:47.555Z,1.90
2019-01-10T05:55:18.331Z,1.90
2019-01-10T05:57:47.664Z,1.87
2019-01-10T06:00:22.298Z,2.10
2019-01-10T06:02:51.640Z,2.00
2019-01-10T06:05:20.968Z,2.03
2019-01-10T06:07:50.462Z,2.10
2019-01-10T06:10:22.215Z,1.97
2019-01-10T06:12:51.560Z,2.10
2019-01-10T06:15:20.953Z,2.07
2019-01-10T06:17:50.372Z,2.07
2019-01-10T06:20:22.043Z,2.00
2019-01-10T06:22:51.381Z,2.10
2019-01-10T06:25:20.807Z,2.23
2019-01-10T06:27:50.197Z,1.63
2019-01-10T06:30:21.409Z,2.00
2019-01-10T06:32:50.848Z,2.10
2019-01-10T06:35:20.186Z,2.07
2019-01-10T06:37:49.591Z,2.00
2019-01-10T06:40:20.580Z,2.03
2019-01-10T06:42:49.881Z,1.90
2019-01-10T06:45:19.375Z,1.80
2019-01-10T06:47:48.762Z,1.73
2019-01-10T06:50:18.416Z,1.83
2019-01-10T06:52:47.759Z,2.30
2019-01-10T06:55:17.075Z,1.83
2019-01-10T06:57:46.356Z,2.17
2019-01-10T07:00:22.816Z,2.20
2019-01-10T07:02:52.197Z,2.00
2019-01-10T07:05:21.590Z,1.90
2019-01-10T07:07:56.433Z,1.80
2019-01-10T07:10:24.074Z,1.97
2019-01-10T07:12:53.465Z,2.00
2019-01-10T07:15:22.858Z,1.90
2019-01-10T07:17:52.186Z,2.10
2019-01-10T07:20:21.512Z,1.83
2019-01-10T07:22:52.173Z,2.03
2019-01-10T07:25:21.504Z,2.10
2019-01-10T07:27:50.826Z,2.00
2019-01-10T07:30:23.183Z,2.03
2019-01-10T07:32:52.506Z,1.70
2019-01-10T07:35:21.843Z,5.47
2019-01-10T07:37:53.107Z,3.53
2019-01-10T07:40:22.442Z,3.53
2019-01-10T07:42:51.770Z,2.57
2019-01-10T07:45:23.131Z,1.93
2019-01-10T07:47:52.452Z,1.93
2019-01-10T07:50:29.922Z,2.07
2019-01-10T07:52:59.245Z,2.00
2019-01-10T07:55:28.573Z,2.23
2019-01-10T07:57:57.890Z,2.00
2019-01-10T08:00:27.209Z,2.20
2019-01-10T08:02:56.530Z,1.90
2019-01-10T08:05:25.855Z,2.10
2019-01-10T08:07:55.194Z,2.40
2019-01-10T08:10:24.570Z,2.20
2019-01-10T08:12:53.953Z,2.63
2019-01-10T08:15:23.346Z,2.23
2019-01-10T08:17:52.670Z,2.00
2019-01-10T08:20:21.990Z,2.33
2019-01-10T08:22:51.310Z,2.30
2019-01-10T08:25:20.704Z,1.70
2019-01-10T08:27:50.077Z,1.80
2019-01-10T08:30:21.356Z,2.07
2019-01-10T08:32:50.738Z,2.30
2019-01-10T08:35:22.400Z,2.03
2019-01-10T08:37:51.723Z,2.00
2019-01-10T08:40:21.042Z,1.87
2019-01-10T08:42:50.436Z,1.87
2019-01-10T08:45:21.980Z,1.83
2019-01-10T08:47:50.928Z,1.83
2019-01-10T08:50:22.785Z,2.87
2019-01-10T08:52:52.351Z,1.90
2019-01-10T08:55:21.713Z,1.80
2019-01-10T08:57:51.062Z,1.93
2019-01-10T09:00:21.222Z,1.87
2019-01-10T09:02:50.706Z,2.10
2019-01-10T09:05:20.102Z,2.10
2019-01-10T09:07:49.421Z,2.03
2019-01-10T09:10:21.190Z,2.40
2019-01-10T09:12:50.581Z,2.10
2019-01-10T09:15:25.275Z,2.17
2019-01-10T09:17:51.000Z,2.20
2019-01-10T09:20:20.316Z,2.17
2019-01-10T09:22:49.641Z,2.20
2019-01-10T09:25:18.966Z,2.20
2019-01-10T09:27:48.282Z,1.93
2019-01-10T09:30:19.052Z,2.30
2019-01-10T09:32:48.451Z,2.50
2019-01-10T09:35:17.900Z,1.70
2019-01-10T09:37:47.370Z,2.13
2019-01-10T09:40:19.093Z,2.50
2019-01-10T09:42:48.429Z,2.53
2019-01-10T09:45:22.281Z,2.77
2019-01-10T09:47:51.610Z,2.40
2019-01-10T09:50:22.261Z,2.50
2019-01-10T09:52:52.034Z,2.97
2019-01-10T09:55:21.422Z,2.77
2019-01-10T09:57:50.750Z,2.13
2019-01-10T10:00:22.407Z,2.63
2019-01-10T10:02:51.725Z,2.60
2019-01-10T10:05:21.039Z,2.10
2019-01-10T10:07:50.438Z,2.37
2019-01-10T10:10:20.298Z,2.80
2019-01-10T10:12:49.610Z,2.40
2019-01-10T10:15:19.585Z,2.70
2019-01-10T10:17:48.977Z,2.70
2019-01-10T10:20:20.333Z,2.40
2019-01-10T10:22:49.656Z,2.50
2019-01-10T10:25:18.981Z,2.33
2019-01-10T10:27:48.308Z,2.40
2019-01-10T10:30:19.367Z,2.40
2019-01-10T10:32:48.699Z,2.30
2019-01-10T10:35:18.380Z,2.13
2019-01-10T10:37:47.721Z,2.40
2019-01-10T10:40:18.589Z,1.80
2019-01-10T10:42:48.441Z,1.83
2019-01-10T10:45:19.112Z,1.53
2019-01-10T10:47:48.436Z,2.50
2019-01-10T10:50:23.462Z,2.30
2019-01-10T10:52:52.782Z,2.23
2019-01-10T10:55:22.101Z,2.50
2019-01-10T10:57:51.433Z,2.30
2019-01-10T11:00:23.453Z,2.10
2019-01-10T11:02:52.841Z,1.90
2019-01-10T11:05:22.169Z,1.80
2019-01-10T11:07:51.489Z,1.70
2019-01-10T11:10:21.054Z,2.30
2019-01-10T11:12:50.455Z,2.10
2019-01-10T11:15:19.764Z,2.13
2019-01-10T11:17:49.229Z,1.97
2019-01-10T11:20:20.390Z,1.90
2019-01-10T11:22:49.950Z,2.00
2019-01-10T11:25:21.810Z,2.40
2019-01-10T11:27:51.122Z,2.50
2019-01-10T11:30:21.411Z,2.00
2019-01-10T11:32:50.733Z,1.90
2019-01-10T11:35:20.049Z,2.23
2019-01-10T11:37:49.377Z,2.07
2019-01-10T11:40:20.437Z,2.90
2019-01-10T11:42:49.922Z,3.40
2019-01-10T11:45:20.893Z,2.33
2019-01-10T11:47:50.281Z,2.40
2019-01-10T11:50:19.665Z,2.60
2019-01-10T11:52:48.996Z,2.60
2019-01-10T11:55:18.310Z,2.50
2019-01-10T11:57:47.633Z,2.70
2019-01-10T12:00:28.574Z,2.33
2019-01-10T12:02:58.029Z,2.30
2019-01-10T12:05:27.358Z,2.30
2019-01-10T12:07:56.817Z,2.57
2019-01-10T12:10:26.394Z,2.33
2019-01-10T12:12:57.742Z,2.37
2019-01-10T12:15:30.519Z,2.50
2019-01-10T12:18:07.619Z,2.30
2019-01-10T12:20:37.547Z,2.70
2019-01-10T12:23:06.957Z,2.37
2019-01-10T12:25:36.329Z,2.20
2019-01-10T12:28:05.702Z,2.47
2019-01-10T12:30:35.094Z,2.60
2019-01-10T12:33:04.480Z,2.67
2019-01-10T12:35:33.811Z,2.20
2019-01-10T12:38:03.125Z,2.90
2019-01-10T12:40:32.445Z,2.47
2019-01-10T12:43:01.794Z,2.50
2019-01-10T12:45:31.100Z,2.60
2019-01-10T12:48:01.659Z,3.07
2019-01-10T12:50:31.849Z,2.97
2019-01-10T12:53:01.160Z,3.17
2019-01-10T12:55:30.487Z,3.03
2019-01-10T12:57:59.801Z,3.27
2019-01-10T13:00:29.126Z,3.50
2019-01-10T13:02:58.441Z,3.77
2019-01-10T13:05:27.774Z,3.93
2019-01-10T13:08:03.472Z,3.60
2019-01-10T13:10:28.212Z,3.13
2019-01-10T13:12:57.619Z,3.20
2019-01-10T13:15:26.938Z,3.20
2019-01-10T13:17:56.257Z,3.30
2019-01-10T13:20:25.587Z,4.47
2019-01-10T13:22:54.920Z,4.40
2019-01-10T13:25:24.252Z,3.97
2019-01-10T13:27:53.582Z,4.37
2019-01-10T13:30:24.149Z,4.33
2019-01-10T13:32:53.806Z,4.50
2019-01-10T13:35:23.125Z,4.27
2019-01-10T13:37:52.451Z,4.40
2019-01-10T13:40:21.990Z,5.03
2019-01-10T13:42:51.317Z,5.47
2019-01-10T13:45:20.714Z,4.87
2019-01-10T13:47:50.103Z,4.97
2019-01-10T13:50:24.988Z,5.07
2019-01-10T13:52:54.391Z,4.90
2019-01-10T13:55:23.720Z,5.60
2019-01-10T13:57:53.031Z,4.93
2019-01-10T14:00:27.807Z,5.27
2019-01-10T14:02:57.203Z,4.80
2019-01-10T14:05:26.603Z,8.20
2019-01-10T14:07:55.943Z,4.10
2019-01-10T14:10:25.483Z,4.30
2019-01-10T14:12:54.809Z,4.43
2019-01-10T14:15:26.567Z,4.50
2019-01-10T14:17:55.961Z,4.67
2019-01-10T14:20:25.361Z,4.87
2019-01-10T14:22:54.686Z,4.63
2019-01-10T14:25:25.081Z,4.47
2019-01-10T14:27:59.499Z,5.80
2019-01-10T14:30:32.224Z,4.60
2019-01-10T14:33:01.544Z,4.90
2019-01-10T14:35:30.942Z,4.43
2019-01-10T14:38:00.266Z,4.47
2019-01-10T14:40:29.595Z,4.53
2019-01-10T14:42:58.917Z,4.27
2019-01-10T14:45:28.237Z,4.30
2019-01-10T14:48:01.759Z,4.80
2019-01-10T14:50:28.617Z,4.17
2019-01-10T14:52:57.933Z,4.50
2019-01-10T14:55:27.325Z,4.70
2019-01-10T14:57:56.650Z,4.50
2019-01-10T15:00:25.978Z,5.13
2019-01-10T15:02:55.301Z,4.30
2019-01-10T15:05:24.621Z,4.70
2019-01-10T15:07:53.943Z,3.97
2019-01-10T15:10:23.260Z,4.40
2019-01-10T15:12:52.587Z,4.67
2019-01-10T15:15:22.547Z,4.20
2019-01-10T15:17:51.861Z,4.37
2019-01-10T15:20:24.183Z,4.40
2019-01-10T15:22:53.505Z,4.90
2019-01-10T15:25:22.820Z,4.87
2019-01-10T15:27:52.153Z,4.90
2019-01-10T15:30:26.039Z,4.73
2019-01-10T15:32:55.429Z,4.50
2019-01-10T15:35:24.822Z,5.07
2019-01-10T15:37:54.142Z,5.20
2019-01-10T15:40:28.853Z,5.00
2019-01-10T15:42:58.254Z,6.92
2019-01-10T15:45:27.575Z,5.17
2019-01-10T15:47:56.889Z,6.27
2019-01-10T15:50:26.224Z,5.63
2019-01-10T15:52:55.554Z,5.33
2019-01-10T15:55:24.946Z,5.37
2019-01-10T15:57:54.352Z,5.63
2019-01-10T16:00:24.633Z,8.40
2019-01-10T16:02:54.114Z,8.53
2019-01-10T16:05:23.459Z,7.47
2019-01-10T16:07:52.877Z,6.00
2019-01-10T16:10:22.239Z,6.13
2019-01-10T16:12:51.571Z,6.20
2019-01-10T16:15:22.766Z,5.93
2019-01-10T16:17:52.396Z,6.37
2019-01-10T16:20:21.874Z,5.20
2019-01-10T16:22:51.290Z,5.20
2019-01-10T16:25:20.636Z,6.00
2019-01-10T16:27:49.964Z,4.80
2019-01-10T16:30:22.116Z,5.03
2019-01-10T16:32:51.456Z,4.90
2019-01-10T16:35:20.868Z,4.87
2019-01-10T16:37:50.367Z,4.83
2019-01-10T16:40:19.853Z,5.20
2019-01-10T16:42:49.198Z,4.53
2019-01-10T16:45:21.054Z,4.63
2019-01-10T16:47:50.399Z,5.17
2019-01-10T16:50:19.804Z,5.10
2019-01-10T16:52:49.157Z,5.53
2019-01-10T16:55:18.640Z,5.40
2019-01-10T16:57:48.079Z,5.70
2019-01-10T17:00:23.591Z,5.43
2019-01-10T17:02:52.918Z,5.40
2019-01-10T17:05:22.250Z,5.73
2019-01-10T17:07:51.582Z,5.93
2019-01-10T17:10:21.323Z,5.93
2019-01-10T17:12:50.758Z,4.93
2019-01-10T17:15:21.477Z,5.23
2019-01-10T17:17:50.915Z,7.10
2019-01-10T17:20:24.817Z,5.83
2019-01-10T17:22:54.256Z,5.27
2019-01-10T17:25:23.661Z,5.47
2019-01-10T17:27:52.678Z,5.40
2019-01-10T17:30:28.095Z,5.33
2019-01-10T17:32:57.479Z,6.53
2019-01-10T17:35:29.426Z,6.37
2019-01-10T17:37:59.019Z,6.23
2019-01-10T17:40:28.505Z,7.13
2019-01-10T17:42:57.986Z,6.23
2019-01-10T17:45:30.126Z,7.87
2019-01-10T17:47:59.465Z,7.40
2019-01-10T17:50:28.872Z,8.13
2019-01-10T17:52:57.878Z,8.07
2019-01-10T17:55:27.130Z,9.47
2019-01-10T17:57:56.136Z,9.27
2019-01-10T18:00:29.680Z,8.97
2019-01-10T18:02:59.161Z,9.13
2019-01-10T18:05:28.494Z,9.27
2019-01-10T18:07:58.066Z,9.13
2019-01-10T18:10:27.407Z,8.50
2019-01-10T18:12:56.987Z,9.43
2019-01-10T18:15:26.519Z,8.37
2019-01-10T18:17:55.850Z,8.60
2019-01-10T18:20:34.005Z,8.07
2019-01-10T18:23:03.419Z,7.83
2019-01-10T18:25:32.760Z,8.90
2019-01-10T18:28:01.762Z,9.37
2019-01-10T18:30:30.769Z,8.70
2019-01-10T18:33:00.014Z,7.83
2019-01-10T18:35:29.346Z,8.47
2019-01-10T18:37:58.753Z,7.87
2019-01-10T18:40:27.764Z,7.93
2019-01-10T18:42:56.682Z,8.33
2019-01-10T18:45:28.354Z,8.47
2019-01-10T18:47:57.696Z,8.07
2019-01-10T18:50:27.095Z,7.40
2019-01-10T18:52:56.436Z,7.27
2019-01-10T18:55:25.770Z,8.20
2019-01-10T18:57:55.110Z,7.23
2019-01-10T19:00:28.908Z,7.40
2019-01-10T19:02:58.511Z,7.80
2019-01-10T19:05:27.986Z,7.47
2019-01-10T19:07:56.997Z,8.60
2019-01-10T19:10:26.419Z,7.90
2019-01-10T19:12:55.743Z,7.27
2019-01-10T19:15:25.160Z,7.37
2019-01-10T19:17:54.502Z,7.20
2019-01-10T19:20:25.857Z,7.10
2019-01-10T19:22:56.334Z,7.83
2019-01-10T19:25:25.669Z,7.60
2019-01-10T19:27:55.001Z,7.37
2019-01-10T19:30:26.583Z,7.40
2019-01-10T19:32:55.922Z,7.93
2019-01-10T19:35:24.928Z,7.13
2019-01-10T19:37:54.158Z,7.83
2019-01-10T19:40:23.745Z,7.80
2019-01-10T19:42:53.147Z,6.90
2019-01-10T19:45:22.710Z,7.00
2019-01-10T19:47:52.167Z,7.40
2019-01-10T19:50:25.660Z,7.40
2019-01-10T19:52:55.009Z,6.63
2019-01-10T19:55:24.486Z,5.93
2019-01-10T19:57:54.203Z,6.20
2019-01-10T20:00:31.822Z,6.90
2019-01-10T20:03:01.177Z,9.90
2019-01-10T20:05:30.588Z,10.87
2019-01-10T20:07:59.927Z,6.93
2019-01-10T20:10:29.334Z,7.50
2019-01-10T20:12:58.662Z,6.27
2019-01-10T20:15:27.998Z,7.53
2019-01-10T20:17:57.574Z,7.20
2019-01-10T20:20:32.470Z,7.77
2019-01-10T20:23:01.811Z,9.20
2019-01-10T20:25:31.152Z,9.87
2019-01-10T20:28:00.571Z,8.07
2019-01-10T20:30:29.979Z,8.77
2019-01-10T20:32:59.314Z,9.93
2019-01-10T20:35:28.645Z,11.67
2019-01-10T20:37:57.655Z,9.70
2019-01-10T20:40:26.943Z,10.17
2019-01-10T20:42:56.350Z,9.07
2019-01-10T20:45:25.705Z,9.90
2019-01-10T20:47:55.331Z,10.70
2019-01-10T20:50:24.675Z,10.47
2019-01-10T20:52:54.092Z,10.63
2019-01-10T20:55:23.105Z,11.33
2019-01-10T20:57:52.358Z,11.70
2019-01-10T21:00:24.153Z,12.47
2019-01-10T21:02:53.244Z,12.37
2019-01-10T21:05:22.159Z,13.00
2019-01-10T21:07:51.390Z,12.00
2019-01-10T21:10:26.255Z,12.93
2019-01-10T21:12:55.849Z,13.87
2019-01-10T21:15:27.890Z,13.77
2019-01-10T21:17:56.929Z,12.97
2019-01-10T21:20:26.242Z,13.70
2019-01-10T21:22:56.711Z,13.87
2019-01-10T21:25:26.129Z,14.13
2019-01-10T21:27:55.135Z,14.23
2019-01-10T21:30:24.567Z,14.93
2019-01-10T21:32:53.588Z,14.43
2019-01-10T21:35:22.836Z,13.00
2019-01-10T21:37:51.853Z,13.90
2019-01-10T21:40:23.123Z,15.07
2019-01-10T21:42:53.085Z,15.47
2019-01-10T21:45:22.751Z,16.77
2019-01-10T21:47:51.831Z,15.70
2019-01-10T21:50:22.927Z,15.67
2019-01-10T21:52:53.118Z,15.60
2019-01-10T21:55:22.487Z,14.80
2019-01-10T21:57:51.811Z,14.27
2019-01-10T22:00:22.439Z,15.90
2019-01-10T22:02:51.440Z,14.40
2019-01-10T22:05:21.053Z,14.97
2019-01-10T22:07:50.394Z,15.90
2019-01-10T22:10:19.399Z,16.70
2019-01-10T22:12:48.334Z,16.17
2019-01-10T22:15:17.460Z,17.57
2019-01-10T22:17:46.745Z,18.77
2019-01-10T22:20:16.890Z,18.63
2019-01-10T22:22:46.184Z,18.50
2019-01-10T22:25:15.195Z,17.50
2019-01-10T22:27:44.109Z,14.80
2019-01-10T22:30:14.569Z,13.73
2019-01-10T22:32:43.486Z,13.63
2019-01-10T22:35:13.944Z,13.90
2019-01-10T22:37:42.854Z,12.47
2019-01-10T22:40:15.587Z,11.23
2019-01-10T22:42:44.516Z,13.43
2019-01-10T22:45:13.993Z,13.07
2019-01-10T22:47:42.906Z,15.13
2019-01-10T22:50:13.303Z,13.33
2019-01-10T22:52:42.227Z,14.07
2019-01-10T22:55:11.915Z,13.20
2019-01-10T22:57:40.830Z,11.77
2019-01-10T23:00:23.310Z,13.00
2019-01-10T23:02:55.407Z,12.80
2019-01-10T23:05:24.664Z,12.63
2019-01-10T23:07:53.662Z,12.40
2019-01-10T23:10:22.586Z,11.90
2019-01-10T23:12:51.850Z,12.57
2019-01-10T23:15:28.205Z,13.10
2019-01-10T23:17:57.214Z,12.10
2019-01-10T23:20:26.151Z,12.87
2019-01-10T23:22:57.882Z,13.00
2019-01-10T23:25:27.133Z,11.67
2019-01-10T23:27:56.150Z,11.47
2019-01-10T23:30:26.599Z,10.70
2019-01-10T23:32:57.059Z,10.40
2019-01-10T23:35:25.976Z,11.73
2019-01-10T23:37:56.858Z,10.70
2019-01-10T23:40:25.866Z,11.77
2019-01-10T23:42:55.142Z,11.87
2019-01-10T23:45:24.152Z,11.60
2019-01-10T23:47:53.042Z,12.73
2019-01-10T23:50:21.961Z,11.40
2019-01-10T23:52:50.878Z,12.53
2019-01-10T23:55:20.126Z,12.80
2019-01-10T23:57:49.207Z,13.20
